Time;durP1;ratioP1;P1;durP2;ratioP2;P2;SDS_P1;SDS_P2;PMS_P1;PMS_P2;Temp;Humidity;BMP_temperature;BMP_pressure;BME280_temperature;BME280_humidity;BME280_pressure;Samples;Min_cycle;Max_cycle;Signal;HPM_P1;HPM_P2
2021/05/22 00:02:07;;;;;;;10.43;9.83;;;24.10;76.30;;;;;;3564964;40;20526;-51
2021/05/22 00:04:34;;;;;;;11.10;10.50;;;24.10;76.30;;;;;;3566701;40;20476;-51
2021/05/22 00:07:02;;;;;;;11.53;10.60;;;24.10;76.20;;;;;;3563970;40;20492;-52
2021/05/22 00:09:29;;;;;;;10.52;10.02;;;24.10;76.20;;;;;;3556564;40;20769;-52
2021/05/22 00:11:56;;;;;;;11.10;10.40;;;24.10;76.30;;;;;;3565476;40;20741;-50
2021/05/22 00:14:23;;;;;;;11.10;10.60;;;24.10;76.20;;;;;;3566584;40;21157;-50
2021/05/22 00:16:51;;;;;;;10.90;10.20;;;24.10;76.20;;;;;;3567885;40;20513;-52
2021/05/22 00:19:21;;;;;;;11.10;10.50;;;24.10;76.20;;;;;;3567070;40;20490;-52
2021/05/22 00:21:49;;;;;;;11.37;10.80;;;24.10;76.20;;;;;;3559778;40;20477;-54
2021/05/22 00:24:16;;;;;;;10.60;10.10;;;24.10;76.20;;;;;;3557582;40;20492;-52
2021/05/22 00:26:43;;;;;;;10.03;9.73;;;24.10;76.30;;;;;;3557284;40;20522;-54
2021/05/22 00:29:13;;;;;;;10.67;10.17;;;24.10;76.20;;;;;;3557002;40;20502;-55
2021/05/22 00:31:40;;;;;;;11.10;10.50;;;24.10;76.20;;;;;;3556058;40;20503;-55
2021/05/22 00:34:06;;;;;;;10.50;9.90;;;24.10;76.30;;;;;;3557036;40;20771;-52
2021/05/22 00:36:35;;;;;;;11.15;10.68;;;24.10;76.30;;;;;;3557859;40;20616;-53
2021/05/22 00:39:03;;;;;;;10.93;10.50;;;24.10;76.40;;;;;;3564421;40;20842;-52
2021/05/22 00:41:30;;;;;;;11.60;11.02;;;24.10;77.10;;;;;;3566203;40;20482;-52
2021/05/22 00:44:04;;;;;;;10.93;10.33;;;24.10;76.30;;;;;;3565573;40;20242;-51
2021/05/22 00:46:31;;;;;;;10.80;10.30;;;24.10;76.30;;;;;;3559637;40;20481;-52
2021/05/22 00:48:59;;;;;;;11.03;10.57;;;24.10;76.20;;;;;;3557606;40;20789;-53
2021/05/22 00:51:26;;;;;;;11.80;11.20;;;24.10;76.30;;;;;;3557368;40;20482;-52
2021/05/22 00:53:55;;;;;;;11.80;10.90;;;24.10;76.30;;;;;;3557788;40;20487;-53
2021/05/22 00:56:22;;;;;;;10.90;10.50;;;24.10;76.30;;;;;;3557705;40;20471;-53
2021/05/22 00:58:50;;;;;;;11.37;10.83;;;24.10;76.30;;;;;;3556774;40;20524;-52
2021/05/22 01:01:19;;;;;;;10.73;10.27;;;24.00;76.10;;;;;;3556084;40;20466;-52
2021/05/22 01:03:52;;;;;;;10.97;10.40;;;24.00;76.10;;;;;;3556249;40;20486;-52
2021/05/22 01:06:26;;;;;;;11.00;10.50;;;24.10;76.20;;;;;;3556955;40;20851;-52
2021/05/22 01:08:59;;;;;;;11.10;10.60;;;24.00;76.10;;;;;;3558924;40;20483;-52
2021/05/22 01:11:30;;;;;;;11.10;10.70;;;24.00;76.20;;;;;;3566690;40;20238;-51
2021/05/22 01:14:00;;;;;;;11.17;10.70;;;24.00;76.20;;;;;;3567160;40;20481;-53
2021/05/22 01:16:27;;;;;;;11.10;10.47;;;24.00;76.20;;;;;;3566370;40;20494;-54
2021/05/22 01:18:57;;;;;;;11.45;10.95;;;24.00;76.20;;;;;;3566551;40;20485;-51
2021/05/22 01:21:25;;;;;;;10.70;10.30;;;24.00;76.20;;;;;;3557219;40;20231;-51
2021/05/22 01:23:56;;;;;;;10.87;10.43;;;24.00;76.10;;;;;;3556959;40;20509;-52
2021/05/22 01:26:26;;;;;;;11.65;11.02;;;24.00;76.10;;;;;;3555716;40;20611;-52
2021/05/22 01:28:55;;;;;;;10.37;10.00;;;24.00;76.20;;;;;;3557628;40;20359;-51
2021/05/22 01:31:25;;;;;;;10.90;10.40;;;24.00;76.20;;;;;;3566649;40;20488;-54
2021/05/22 01:33:55;;;;;;;10.40;9.90;;;24.10;76.20;;;;;;3557282;40;20485;-52
2021/05/22 01:36:24;;;;;;;11.10;10.60;;;24.00;76.10;;;;;;3548444;40;20503;-51
2021/05/22 01:38:51;;;;;;;12.63;11.90;;;24.00;76.10;;;;;;3564369;40;21175;-51
2021/05/22 01:41:19;;;;;;;10.93;10.40;;;24.00;76.20;;;;;;3567169;40;20490;-52
2021/05/22 01:43:50;;;;;;;10.97;10.40;;;24.00;76.20;;;;;;3567342;40;20472;-54
2021/05/22 01:46:25;;;;;;;10.73;10.23;;;24.00;76.20;;;;;;3566431;40;20473;-52
2021/05/22 01:48:55;;;;;;;11.30;10.80;;;24.00;76.10;;;;;;3566552;40;20526;-52
2021/05/22 01:51:25;;;;;;;10.17;9.67;;;24.00;76.20;;;;;;3559506;40;20541;-52
2021/05/22 01:54:10;;;;;;;10.67;10.17;;;24.00;76.10;;;;;;3549318;40;20571;-52
2021/05/22 01:56:39;;;;;;;11.13;10.73;;;24.00;76.10;;;;;;3558972;40;21143;-53
2021/05/22 01:59:06;;;;;;;10.37;9.97;;;24.00;76.20;;;;;;3564335;40;20572;-53
2021/05/22 02:01:34;;;;;;;11.70;11.20;;;24.00;76.20;;;;;;3556519;40;20499;-51
2021/05/22 02:04:05;;;;;;;10.73;10.33;;;24.00;76.10;;;;;;3559298;40;20492;-51
2021/05/22 02:06:38;;;;;;;11.15;10.57;;;24.00;76.10;;;;;;3567328;40;20511;-53
2021/05/22 02:09:06;;;;;;;11.20;10.80;;;24.00;76.20;;;;;;3567011;40;20229;-52
2021/05/22 02:11:39;;;;;;;10.90;10.40;;;24.00;76.90;;;;;;3566988;40;20235;-51
2021/05/22 02:14:09;;;;;;;11.40;10.90;;;24.00;76.10;;;;;;3563834;40;20834;-53
2021/05/22 02:16:42;;;;;;;10.63;10.23;;;24.10;76.10;;;;;;3556193;40;20491;-53
2021/05/22 02:19:11;;;;;;;11.17;10.70;;;24.10;76.10;;;;;;3555691;40;20469;-51
2021/05/22 02:21:42;;;;;;;11.83;11.33;;;24.10;76.10;;;;;;3556263;40;20469;-52
2021/05/22 02:24:11;;;;;;;10.60;10.20;;;24.10;76.00;;;;;;3556223;40;20506;-51
2021/05/22 02:26:41;;;;;;;10.83;10.43;;;24.10;76.00;;;;;;3556918;40;20479;-54
2021/05/22 02:29:15;;;;;;;10.93;10.43;;;24.10;76.00;;;;;;3556763;40;20532;-53
2021/05/22 02:31:44;;;;;;;11.37;10.77;;;24.10;75.90;;;;;;3557109;40;20509;-53
2021/05/22 02:34:12;;;;;;;10.90;10.47;;;24.10;75.90;;;;;;3556998;40;20483;-54
2021/05/22 02:36:50;;;;;;;10.80;10.30;;;24.10;75.90;;;;;;3556434;40;20490;-53
2021/05/22 02:39:17;;;;;;;10.63;10.23;;;24.20;76.00;;;;;;3556665;40;20528;-51
2021/05/22 02:41:46;;;;;;;11.40;10.90;;;24.20;75.90;;;;;;3554866;40;20469;-51
2021/05/22 02:44:16;;;;;;;10.80;10.37;;;24.20;75.90;;;;;;3556803;40;20577;-53
2021/05/22 02:46:46;;;;;;;11.13;10.60;;;24.20;75.90;;;;;;3556073;40;20498;-53
2021/05/22 02:49:17;;;;;;;10.90;10.20;;;24.20;75.80;;;;;;3557105;40;20487;-51
2021/05/22 02:51:48;;;;;;;10.93;10.53;;;24.20;75.80;;;;;;3555910;40;20501;-52
2021/05/22 02:54:19;;;;;;;10.87;10.43;;;24.20;76.50;;;;;;3554152;40;21128;-51
2021/05/22 02:56:51;;;;;;;10.73;10.30;;;24.20;75.80;;;;;;3538029;40;20508;-51
2021/05/22 02:59:24;;;;;;;11.03;10.53;;;24.20;75.70;;;;;;3555462;40;20230;-52
2021/05/22 03:01:58;;;;;;;11.95;11.05;;;24.20;75.70;;;;;;3555930;40;20498;-52
2021/05/22 03:04:25;;;;;;;10.50;10.10;;;24.20;75.60;;;;;;3549949;40;20245;-51
2021/05/22 03:06:53;;;;;;;11.80;11.32;;;24.30;75.70;;;;;;3557112;40;20222;-53
2021/05/22 03:09:21;;;;;;;11.23;10.63;;;24.30;75.70;;;;;;3556395;40;20740;-52
2021/05/22 03:11:49;;;;;;;10.93;10.53;;;24.30;75.60;;;;;;3553927;40;20531;-52
2021/05/22 03:14:15;;;;;;;10.50;10.20;;;24.30;75.50;;;;;;3551677;40;20493;-51
2021/05/22 03:16:44;;;;;;;11.00;10.60;;;24.30;75.50;;;;;;3545837;40;20487;-51
2021/05/22 03:19:10;;;;;;;11.20;10.70;;;24.30;76.30;;;;;;3546630;40;20730;-52
2021/05/22 03:21:37;;;;;;;11.23;10.80;;;24.30;75.40;;;;;;3546255;40;20564;-52
2021/05/22 03:24:05;;;;;;;11.20;10.80;;;24.30;75.50;;;;;;3547055;40;20488;-55
2021/05/22 03:26:32;;;;;;;10.53;10.13;;;24.30;75.40;;;;;;3537849;40;20480;-51
2021/05/22 03:28:58;;;;;;;11.60;11.10;;;24.40;75.50;;;;;;3546969;40;20825;-51
2021/05/22 03:31:25;;;;;;;11.17;10.77;;;24.40;75.40;;;;;;3547556;40;20503;-52
2021/05/22 03:33:53;;;;;;;12.00;11.50;;;24.40;75.40;;;;;;3547833;40;20496;-53
2021/05/22 03:36:20;;;;;;;12.80;12.10;;;24.40;75.30;;;;;;3539582;40;20236;-52
2021/05/22 03:38:46;;;;;;;12.50;11.93;;;24.40;75.30;;;;;;3554893;40;21088;-51
2021/05/22 03:41:13;;;;;;;12.03;11.63;;;24.50;75.40;;;;;;3557610;40;20474;-53
2021/05/22 03:43:39;;;;;;;13.13;12.50;;;24.50;75.30;;;;;;3557519;40;20484;-51
2021/05/22 03:46:07;;;;;;;12.00;11.60;;;24.50;75.20;;;;;;3555861;40;20483;-54
2021/05/22 03:48:34;;;;;;;13.10;12.47;;;24.50;75.20;;;;;;3557246;40;20527;-52
2021/05/22 03:51:03;;;;;;;12.10;11.60;;;24.50;75.20;;;;;;3557274;40;20491;-53
2021/05/22 03:53:31;;;;;;;13.03;12.43;;;24.50;75.10;;;;;;3557428;40;20534;-52
2021/05/22 03:55:58;;;;;;;12.60;12.10;;;24.50;75.00;;;;;;3556914;40;20869;-54
2021/05/22 03:58:25;;;;;;;12.27;11.87;;;24.50;75.00;;;;;;3557268;40;20489;-54
2021/05/22 04:00:52;;;;;;;12.93;12.43;;;24.60;75.00;;;;;;3554815;40;20499;-52
2021/05/22 04:03:19;;;;;;;12.43;11.87;;;24.60;74.90;;;;;;3556423;40;21140;-51
2021/05/22 04:05:46;;;;;;;13.20;12.60;;;24.60;74.90;;;;;;3557876;40;20512;-54
2021/05/22 04:08:14;;;;;;;14.77;14.17;;;24.60;74.80;;;;;;3557897;40;20490;-52
2021/05/22 04:10:42;;;;;;;12.83;12.33;;;24.60;74.80;;;;;;3557723;40;20485;-56
2021/05/22 04:13:10;;;;;;;12.85;12.35;;;24.70;74.90;;;;;;3557443;40;20586;-55
2021/05/22 04:15:37;;;;;;;13.63;13.02;;;24.70;74.80;;;;;;3557854;40;20226;-55
2021/05/22 04:18:05;;;;;;;13.00;12.40;;;24.70;74.80;;;;;;3556955;40;20225;-51
2021/05/22 04:20:32;;;;;;;12.97;12.47;;;24.70;74.70;;;;;;3557517;40;20487;-52
2021/05/22 04:23:00;;;;;;;13.88;13.27;;;24.70;74.60;;;;;;3556094;40;20582;-53
2021/05/22 04:25:27;;;;;;;12.93;12.43;;;24.80;74.80;;;;;;3557656;40;20275;-54
2021/05/22 04:27:55;;;;;;;12.70;12.20;;;24.80;74.70;;;;;;3557032;40;20486;-52
2021/05/22 04:30:23;;;;;;;12.90;12.40;;;24.80;74.60;;;;;;3555011;40;20496;-51
2021/05/22 04:32:50;;;;;;;12.60;12.10;;;24.80;74.60;;;;;;3554296;40;20712;-52
2021/05/22 04:35:17;;;;;;;13.07;12.50;;;24.80;74.50;;;;;;3546884;40;21104;-53
2021/05/22 04:37:45;;;;;;;12.70;12.27;;;24.80;74.40;;;;;;3550191;40;20593;-51
2021/05/22 04:40:13;;;;;;;13.20;12.60;;;24.90;74.50;;;;;;3556946;40;20519;-51
2021/05/22 04:42:40;;;;;;;12.50;12.10;;;24.90;74.40;;;;;;3554984;40;20528;-52
2021/05/22 04:45:09;;;;;;;12.30;11.80;;;24.90;74.40;;;;;;3546130;40;20502;-53
2021/05/22 04:47:38;;;;;;;12.50;12.00;;;24.90;74.30;;;;;;3546126;40;20495;-52
2021/05/22 04:50:08;;;;;;;12.07;11.60;;;24.90;74.20;;;;;;3546714;40;20488;-53
2021/05/22 04:52:36;;;;;;;12.13;11.60;;;25.00;74.30;;;;;;3549511;40;20504;-54
2021/05/22 04:55:05;;;;;;;12.07;11.67;;;25.00;74.20;;;;;;3556514;40;20486;-53
2021/05/22 04:57:31;;;;;;;12.17;11.60;;;25.00;74.20;;;;;;3556596;40;20490;-53
2021/05/22 04:59:59;;;;;;;12.70;12.20;;;25.00;74.20;;;;;;3554713;40;20591;-55
2021/05/22 05:02:27;;;;;;;12.30;11.80;;;25.00;74.20;;;;;;3554132;40;20493;-52
2021/05/22 05:04:53;;;;;;;12.33;11.90;;;25.00;74.20;;;;;;3545734;40;20475;-51
2021/05/22 05:07:20;;;;;;;12.03;11.63;;;25.00;74.10;;;;;;3546626;40;20499;-52
2021/05/22 05:09:51;;;;;;;12.13;11.70;;;25.00;74.10;;;;;;3546126;40;20475;-51
2021/05/22 05:12:18;;;;;;;12.50;12.00;;;25.00;74.10;;;;;;3545982;40;21046;-51
2021/05/22 05:14:45;;;;;;;12.50;12.10;;;25.00;74.10;;;;;;3554560;40;20478;-52
2021/05/22 05:17:13;;;;;;;12.20;11.70;;;25.00;74.00;;;;;;3556628;40;20479;-52
2021/05/22 05:19:41;;;;;;;12.77;12.17;;;25.00;74.00;;;;;;3556407;40;20506;-52
2021/05/22 05:22:07;;;;;;;12.60;12.10;;;25.10;74.00;;;;;;3555945;40;20483;-52
2021/05/22 05:24:36;;;;;;;12.10;11.60;;;25.10;73.90;;;;;;3555918;40;20491;-51
2021/05/22 05:27:03;;;;;;;12.80;12.30;;;25.10;73.90;;;;;;3555604;40;20477;-52
2021/05/22 05:29:29;;;;;;;12.50;12.00;;;25.10;74.00;;;;;;3555363;40;20557;-51
2021/05/22 05:31:57;;;;;;;11.90;11.50;;;25.10;73.90;;;;;;3560990;40;20502;-52
2021/05/22 05:34:24;;;;;;;12.93;12.52;;;25.10;73.90;;;;;;3559806;40;20574;-52
2021/05/22 05:36:52;;;;;;;13.25;12.60;;;25.10;73.90;;;;;;3556268;40;20315;-54
2021/05/22 05:39:19;;;;;;;12.80;12.30;;;25.10;73.90;;;;;;3556251;40;20546;-54
2021/05/22 05:41:48;;;;;;;11.80;11.40;;;25.10;73.80;;;;;;3565546;40;20493;-51
2021/05/22 05:44:15;;;;;;;11.80;11.40;;;25.10;73.70;;;;;;3558876;40;21084;-52
2021/05/22 05:46:41;;;;;;;11.47;11.07;;;25.10;73.70;;;;;;3555539;40;20865;-53
2021/05/22 05:49:08;;;;;;;11.70;11.10;;;25.20;73.80;;;;;;3555749;40;20475;-54
2021/05/22 05:51:36;;;;;;;11.97;11.57;;;25.20;73.80;;;;;;3554694;40;20480;-52
2021/05/22 05:54:04;;;;;;;11.30;10.90;;;25.20;73.80;;;;;;3557771;40;20484;-51
2021/05/22 05:56:31;;;;;;;12.13;11.63;;;25.20;73.70;;;;;;3565427;40;20657;-53
2021/05/22 05:58:59;;;;;;;12.23;11.73;;;25.20;73.70;;;;;;3565432;40;20492;-51
2021/05/22 06:01:26;;;;;;;12.10;11.50;;;25.20;73.70;;;;;;3565531;40;20505;-54
2021/05/22 06:03:53;;;;;;;12.00;11.60;;;25.20;73.80;;;;;;3557183;40;20537;-53
2021/05/22 06:06:21;;;;;;;12.07;11.57;;;25.20;73.70;;;;;;3564965;40;20743;-53
2021/05/22 06:08:48;;;;;;;11.07;10.67;;;25.20;73.70;;;;;;3565157;40;20476;-52
2021/05/22 06:11:18;;;;;;;12.80;12.03;;;25.20;73.70;;;;;;3562580;40;21144;-51
2021/05/22 06:13:46;;;;;;;12.10;11.60;;;25.20;73.70;;;;;;3564829;40;20507;-55
2021/05/22 06:16:21;;;;;;;11.00;10.60;;;25.20;73.70;;;;;;3553061;40;20524;-54
2021/05/22 06:18:49;;;;;;;10.60;10.10;;;25.20;73.70;;;;;;3554209;40;20479;-52
2021/05/22 06:21:16;;;;;;;10.90;10.50;;;25.20;73.70;;;;;;3555141;40;20480;-53
2021/05/22 06:23:43;;;;;;;11.20;10.80;;;25.20;73.70;;;;;;3561233;40;20510;-52
2021/05/22 06:26:13;;;;;;;11.02;10.52;;;25.20;74.40;;;;;;3553794;40;20507;-52
2021/05/22 06:28:41;;;;;;;11.30;10.90;;;25.20;73.70;;;;;;3554339;40;20820;-51
2021/05/22 06:31:09;;;;;;;11.30;10.90;;;25.20;73.70;;;;;;3554351;40;20470;-51
2021/05/22 06:33:36;;;;;;;11.60;11.10;;;25.20;73.70;;;;;;3545564;40;20494;-51
2021/05/22 06:36:03;;;;;;;12.00;11.50;;;25.20;73.60;;;;;;3562475;40;20517;-51
2021/05/22 06:38:29;;;;;;;11.27;10.83;;;25.20;73.70;;;;;;3569439;40;20488;-53
2021/05/22 06:40:56;;;;;;;11.63;11.20;;;25.20;74.40;;;;;;3574674;40;20845;-51
2021/05/22 06:43:24;;;;;;;11.47;11.07;;;25.10;73.60;;;;;;3574721;40;20697;-52
2021/05/22 06:45:59;;;;;;;11.97;11.47;;;25.10;73.60;;;;;;3556800;40;20496;-52
2021/05/22 06:48:27;;;;;;;10.90;10.50;;;25.10;73.70;;;;;;3554466;40;20530;-51
2021/05/22 06:50:55;;;;;;;11.00;10.60;;;25.10;73.60;;;;;;3553985;40;20484;-53
2021/05/22 06:53:23;;;;;;;10.93;10.53;;;25.20;73.80;;;;;;3555532;40;20556;-51
2021/05/22 06:55:50;;;;;;;11.50;11.00;;;25.10;73.70;;;;;;3563884;40;20579;-52
2021/05/22 06:58:18;;;;;;;11.10;10.70;;;25.10;73.80;;;;;;3563784;40;20485;-51
2021/05/22 07:00:47;;;;;;;11.03;10.63;;;25.10;73.90;;;;;;3561989;40;20547;-56
2021/05/22 07:03:15;;;;;;;10.83;10.33;;;25.10;73.80;;;;;;3563452;40;20832;-52
2021/05/22 07:05:43;;;;;;;11.50;11.00;;;25.10;73.80;;;;;;3556749;40;20489;-51
2021/05/22 07:08:11;;;;;;;11.07;10.60;;;25.10;73.80;;;;;;3566191;40;20488;-51
2021/05/22 07:10:38;;;;;;;10.80;10.40;;;25.10;73.90;;;;;;3567654;40;20477;-53
2021/05/22 07:13:05;;;;;;;10.70;10.30;;;25.10;73.80;;;;;;3566857;40;20892;-51
2021/05/22 07:15:32;;;;;;;10.70;10.30;;;25.10;73.90;;;;;;3560929;40;20482;-51
2021/05/22 07:17:59;;;;;;;10.60;10.20;;;25.10;73.90;;;;;;3556879;40;20499;-53
2021/05/22 07:20:26;;;;;;;11.07;10.67;;;25.10;73.90;;;;;;3557644;40;20744;-52
2021/05/22 07:22:54;;;;;;;11.50;11.00;;;25.10;73.90;;;;;;3556881;40;20868;-53
2021/05/22 07:25:21;;;;;;;11.70;11.20;;;25.00;74.60;;;;;;3559393;40;20493;-53
2021/05/22 07:27:49;;;;;;;11.03;10.47;;;25.00;74.00;;;;;;3566442;40;20516;-52
2021/05/22 07:30:18;;;;;;;10.60;10.30;;;25.00;74.00;;;;;;3567519;40;20488;-54
2021/05/22 07:32:45;;;;;;;11.50;10.80;;;25.00;74.00;;;;;;3566498;40;20523;-53
2021/05/22 07:35:15;;;;;;;11.20;10.70;;;25.00;74.00;;;;;;3565999;40;21005;-55
2021/05/22 07:37:42;;;;;;;10.90;10.50;;;25.00;74.10;;;;;;3568588;40;20500;-53
2021/05/22 07:40:11;;;;;;;11.33;10.83;;;25.00;74.10;;;;;;3576651;40;20476;-54
2021/05/22 07:42:38;;;;;;;11.13;10.70;;;25.00;74.10;;;;;;3554184;40;20504;-52
2021/05/22 07:45:07;;;;;;;10.43;10.03;;;25.00;74.10;;;;;;3555399;40;20493;-53
2021/05/22 07:47:35;;;;;;;11.60;10.70;;;25.00;74.10;;;;;;3546590;40;20498;-52
2021/05/22 07:50:03;;;;;;;11.03;10.63;;;25.00;74.10;;;;;;3547868;40;21035;-53
2021/05/22 07:52:32;;;;;;;12.43;11.30;;;25.00;74.20;;;;;;3556090;40;20480;-54
2021/05/22 07:55:00;;;;;;;10.50;10.10;;;25.00;74.30;;;;;;3556420;40;20313;-52
2021/05/22 07:57:26;;;;;;;10.63;10.23;;;25.00;74.20;;;;;;3547241;40;20506;-55
2021/05/22 07:59:53;;;;;;;10.47;9.97;;;25.00;74.20;;;;;;3546578;40;20564;-51
2021/05/22 08:02:19;;;;;;;10.87;10.37;;;25.00;74.30;;;;;;3545615;40;21318;-53
2021/05/22 08:04:46;;;;;;;11.27;10.77;;;25.00;74.30;;;;;;3543933;40;20491;-52
2021/05/22 08:07:13;;;;;;;10.93;10.33;;;24.90;74.30;;;;;;3554023;40;20502;-55
2021/05/22 08:09:42;;;;;;;11.40;10.23;;;24.90;74.30;;;;;;3555520;40;20473;-51
2021/05/22 08:12:09;;;;;;;11.10;10.60;;;25.00;74.70;;;;;;3554763;40;20489;-52
2021/05/22 08:14:37;;;;;;;11.00;10.50;;;25.00;74.40;;;;;;3554173;40;20579;-55
2021/05/22 08:17:05;;;;;;;10.90;10.50;;;24.90;74.50;;;;;;3547664;40;20504;-55
2021/05/22 08:19:31;;;;;;;11.20;10.73;;;24.90;74.70;;;;;;3545625;40;20517;-51
2021/05/22 08:21:59;;;;;;;11.40;10.80;;;24.90;74.80;;;;;;3559187;40;20489;-52
2021/05/22 08:24:26;;;;;;;13.00;11.50;;;24.90;74.90;;;;;;3564537;40;20568;-52
2021/05/22 08:26:55;;;;;;;10.83;10.37;;;24.90;75.00;;;;;;3559289;40;20490;-51
2021/05/22 08:29:22;;;;;;;11.37;10.73;;;24.80;75.00;;;;;;3554377;40;20499;-50
2021/05/22 08:31:49;;;;;;;10.15;9.65;;;24.80;73.40;;;;;;3545446;40;20737;-55
2021/05/22 08:34:16;;;;;;;11.10;10.60;;;24.80;63.60;;;;;;3558019;40;20224;-52
2021/05/22 08:36:42;;;;;;;9.95;9.45;;;24.60;59.40;;;;;;3563387;40;20498;-53
2021/05/22 08:39:09;;;;;;;10.60;10.07;;;24.40;58.90;;;;;;3564244;40;20234;-52
2021/05/22 08:41:37;;;;;;;9.70;9.30;;;24.30;58.10;;;;;;3563633;40;20923;-51
2021/05/22 08:44:05;;;;;;;10.10;9.50;;;24.20;57.80;;;;;;3561888;40;20543;-53
2021/05/22 08:46:33;;;;;;;11.03;10.10;;;24.10;56.60;;;;;;3564521;40;20502;-51
2021/05/22 08:49:00;;;;;;;9.93;9.53;;;24.00;56.70;;;;;;3563004;40;20547;-55
2021/05/22 08:51:27;;;;;;;11.10;10.60;;;24.10;57.80;;;;;;3563774;40;20493;-52
2021/05/22 08:53:54;;;;;;;11.27;10.60;;;24.10;58.80;;;;;;3555989;40;20731;-54
2021/05/22 08:56:22;;;;;;;10.90;10.30;;;24.10;60.50;;;;;;3553888;40;20489;-52
2021/05/22 08:58:50;;;;;;;11.03;10.20;;;24.20;62.30;;;;;;3556364;40;20477;-50
2021/05/22 09:01:19;;;;;;;10.67;10.13;;;24.20;63.40;;;;;;3561771;40;20575;-53
2021/05/22 09:03:46;;;;;;;10.40;9.70;;;24.30;64.10;;;;;;3562668;40;20498;-56
2021/05/22 09:06:14;;;;;;;10.70;9.73;;;24.30;64.60;;;;;;3553363;40;20503;-51
2021/05/22 09:08:41;;;;;;;9.87;9.20;;;24.40;65.10;;;;;;3553097;40;20506;-54
2021/05/22 09:11:12;;;;;;;10.93;9.97;;;24.40;65.40;;;;;;3553890;40;20486;-52
2021/05/22 09:13:39;;;;;;;10.30;9.90;;;24.40;65.70;;;;;;3553085;40;20600;-51
2021/05/22 09:16:09;;;;;;;11.20;10.60;;;24.40;65.90;;;;;;3564265;40;20244;-52
2021/05/22 09:18:40;;;;;;;10.80;10.10;;;24.50;66.20;;;;;;3555158;40;20479;-51
2021/05/22 09:21:09;;;;;;;10.60;10.00;;;24.50;66.40;;;;;;3554295;40;20479;-54
2021/05/22 09:23:39;;;;;;;11.20;10.40;;;24.60;66.70;;;;;;3552938;40;20570;-52
2021/05/22 09:26:08;;;;;;;10.67;10.00;;;24.60;66.80;;;;;;3554321;40;20634;-54
2021/05/22 09:28:36;;;;;;;9.80;9.40;;;24.60;67.00;;;;;;3563653;40;20474;-51
2021/05/22 09:31:10;;;;;;;10.93;10.23;;;24.60;67.10;;;;;;3563578;40;20916;-52
2021/05/22 09:33:39;;;;;;;11.03;10.20;;;24.60;67.20;;;;;;3564488;40;20579;-56
2021/05/22 09:36:09;;;;;;;10.30;9.30;;;24.60;67.70;;;;;;3563439;40;20876;-51
2021/05/22 09:38:37;;;;;;;10.17;9.37;;;24.70;68.00;;;;;;3564155;40;20486;-50
2021/05/22 09:41:14;;;;;;;9.97;9.47;;;24.80;68.30;;;;;;3563770;40;20486;-51
2021/05/22 09:43:40;;;;;;;23.37;21.17;;;24.70;58.40;;;;;;3562657;40;20486;-53
2021/05/22 09:46:10;;;;;;;19.33;17.47;;;24.50;57.20;;;;;;3562917;40;20534;-53
2021/05/22 09:48:38;;;;;;;17.33;14.65;;;24.40;57.70;;;;;;3562688;40;20482;-55
2021/05/22 09:51:07;;;;;;;14.90;13.70;;;24.30;56.70;;;;;;3564043;40;20239;-55
2021/05/22 09:53:36;;;;;;;12.37;11.27;;;24.20;57.30;;;;;;3561968;40;20505;-55
2021/05/22 09:56:17;;;;;;;10.73;10.23;;;24.20;56.60;;;;;;3562485;40;20883;-55
2021/05/22 09:58:46;;;;;;;11.07;10.47;;;24.10;54.20;;;;;;3563642;40;20494;-55
2021/05/22 10:01:15;;;;;;;10.80;10.20;;;24.00;53.60;;;;;;3558181;40;20495;-56
2021/05/22 10:03:43;;;;;;;11.20;10.50;;;23.90;54.60;;;;;;3554591;40;20500;-56
2021/05/22 10:06:13;;;;;;;10.73;10.23;;;23.80;53.30;;;;;;3558748;40;20495;-53
2021/05/22 10:08:40;;;;;;;11.43;10.73;;;23.80;53.40;;;;;;3557315;40;20243;-56
2021/05/22 10:11:07;;;;;;;11.33;10.73;;;23.80;53.60;;;;;;3558663;40;20483;-53
2021/05/22 10:13:36;;;;;;;10.20;9.80;;;23.80;53.90;;;;;;3561681;40;20499;-52
2021/05/22 10:16:06;;;;;;;11.00;10.30;;;23.80;53.50;;;;;;3562388;40;20860;-56
2021/05/22 10:18:34;;;;;;;11.50;10.93;;;23.70;52.00;;;;;;3560033;40;20510;-51
2021/05/22 10:21:04;;;;;;;11.10;10.40;;;23.70;53.80;;;;;;3551269;40;20423;-56
2021/05/22 10:23:31;;;;;;;10.30;9.80;;;23.80;53.10;;;;;;3558138;40;20232;-52
2021/05/22 10:25:59;;;;;;;10.70;10.30;;;23.80;53.20;;;;;;3562618;40;20492;-52
2021/05/22 10:28:27;;;;;;;11.00;10.40;;;23.80;54.60;;;;;;3561570;40;20561;-53
2021/05/22 10:30:54;;;;;;;14.23;13.23;;;23.90;53.70;;;;;;3556212;40;20504;-54
2021/05/22 10:33:21;;;;;;;12.07;11.37;;;23.90;53.60;;;;;;3561744;40;20481;-54
2021/05/22 10:35:51;;;;;;;12.32;11.75;;;23.90;53.70;;;;;;3553360;40;20483;-53
2021/05/22 10:38:41;;;;;;;11.03;10.43;;;23.90;53.60;;;;;;3552954;40;20326;-56
2021/05/22 10:41:11;;;;;;;11.13;10.63;;;23.90;52.40;;;;;;3552652;40;20498;-55
2021/05/22 10:43:47;;;;;;;11.18;10.68;;;23.90;52.10;;;;;;3542425;40;20746;-52
2021/05/22 10:46:16;;;;;;;11.27;10.87;;;23.90;52.40;;;;;;3560431;40;20230;-52
2021/05/22 10:48:57;;;;;;;10.18;9.68;;;24.00;53.10;;;;;;3562589;40;20476;-51
2021/05/22 10:51:35;;;;;;;10.70;10.30;;;23.90;51.60;;;;;;3556763;40;20238;-51
2021/05/22 10:54:14;;;;;;;10.65;10.25;;;23.90;51.00;;;;;;3561065;40;20489;-55
2021/05/22 10:57:01;;;;;;;11.17;10.67;;;23.90;50.10;;;;;;3555605;40;20662;-53
2021/05/22 10:59:28;;;;;;;10.60;10.20;;;23.80;50.10;;;;;;3556872;40;20571;-54
2021/05/22 11:01:55;;;;;;;11.00;10.40;;;23.90;52.10;;;;;;3562103;40;20314;-57
2021/05/22 11:04:34;;;;;;;10.13;9.63;;;23.90;52.20;;;;;;3560998;40;20510;-56
2021/05/22 11:07:20;;;;;;;11.65;11.05;;;23.90;51.50;;;;;;3561709;40;20926;-55
2021/05/22 11:09:55;;;;;;;10.35;9.93;;;23.90;52.60;;;;;;3553411;40;20536;-54
2021/05/22 11:12:42;;;;;;;10.53;9.93;;;23.90;51.40;;;;;;3551711;40;20267;-53
2021/05/22 11:15:44;;;;;;;10.97;10.37;;;23.90;52.40;;;;;;3554055;40;20506;-57
2021/05/22 11:18:12;;;;;;;10.07;9.57;;;23.90;52.90;;;;;;3557157;40;20478;-51
2021/05/22 11:20:41;;;;;;;10.43;10.00;;;23.90;51.00;;;;;;3555568;40;20534;-55
2021/05/22 11:23:09;;;;;;;10.20;9.70;;;23.80;50.60;;;;;;3562751;40;20490;-52
2021/05/22 11:25:50;;;;;;;12.13;11.53;;;23.80;50.40;;;;;;3562617;40;20499;-53
2021/05/22 11:28:20;;;;;;;12.10;11.30;;;23.80;51.40;;;;;;3552957;40;20453;-49
2021/05/22 11:30:55;;;;;;;14.73;13.83;;;23.90;52.60;;;;;;3562186;40;21003;-52
2021/05/22 11:33:33;;;;;;;14.90;13.67;;;23.90;51.20;;;;;;3559614;40;20504;-50
2021/05/22 11:36:15;;;;;;;12.00;11.37;;;23.90;52.10;;;;;;3559772;40;20489;-54
2021/05/22 11:38:53;;;;;;;12.87;12.13;;;23.90;49.80;;;;;;3560006;40;21072;-51
2021/05/22 11:41:35;;;;;;;11.93;11.27;;;23.80;51.00;;;;;;3562108;40;20838;-49
2021/05/22 11:44:06;;;;;;;9.83;9.43;;;23.80;50.10;;;;;;3559570;40;20501;-52
2021/05/22 11:46:33;;;;;;;11.10;10.23;;;23.80;49.40;;;;;;3559815;40;20885;-50
2021/05/22 11:48:59;;;;;;;10.30;9.80;;;23.80;50.10;;;;;;3559257;40;20507;-49
2021/05/22 11:51:29;;;;;;;10.07;9.77;;;23.80;50.90;;;;;;3559445;40;20538;-50
2021/05/22 11:53:58;;;;;;;10.30;9.80;;;23.80;50.10;;;;;;3559633;40;20482;-58
2021/05/22 11:56:26;;;;;;;12.13;11.40;;;23.70;48.40;;;;;;3557240;40;20494;-59
2021/05/22 11:58:56;;;;;;;11.30;10.80;;;23.70;48.90;;;;;;3560477;40;20501;-53
2021/05/22 12:01:25;;;;;;;10.97;10.40;;;23.70;48.80;;;;;;3563026;40;20491;-54
2021/05/22 12:03:54;;;;;;;11.37;10.67;;;23.60;48.70;;;;;;3559326;40;20575;-54
2021/05/22 12:06:24;;;;;;;12.63;11.93;;;23.70;48.90;;;;;;3560465;40;20495;-53
2021/05/22 12:09:09;;;;;;;13.73;12.93;;;23.70;49.00;;;;;;3553682;40;20830;-56
2021/05/22 12:11:41;;;;;;;13.60;12.60;;;23.70;49.20;;;;;;3556588;40;20801;-54
2021/05/22 12:14:09;;;;;;;16.67;15.47;;;23.70;48.20;;;;;;3561797;40;20481;-52
2021/05/22 12:16:40;;;;;;;16.00;14.90;;;23.70;49.00;;;;;;3556306;40;21174;-53
2021/05/22 12:19:13;;;;;;;13.50;12.60;;;23.80;49.30;;;;;;3554408;40;20858;-54
2021/05/22 12:21:40;;;;;;;12.70;12.10;;;23.80;48.50;;;;;;3557692;40;20579;-52
2021/05/22 12:24:10;;;;;;;12.83;11.93;;;23.80;48.90;;;;;;3553304;40;20506;-55
2021/05/22 12:26:38;;;;;;;11.33;10.83;;;23.80;48.30;;;;;;3550602;40;20872;-53
2021/05/22 12:29:10;;;;;;;13.70;12.70;;;23.70;47.60;;;;;;3554859;40;20499;-54
2021/05/22 12:31:37;;;;;;;11.60;11.10;;;23.80;49.10;;;;;;3555771;40;20482;-52
2021/05/22 12:34:06;;;;;;;10.87;10.37;;;23.80;48.10;;;;;;3563551;40;20580;-55
2021/05/22 12:36:34;;;;;;;11.20;10.70;;;23.70;47.50;;;;;;3561960;40;20497;-51
2021/05/22 12:39:11;;;;;;;10.80;10.30;;;23.70;48.00;;;;;;3563293;40;20482;-52